createdAt,value
2023-02-13T00:00:15.078Z,81.60
2023-02-13T00:02:51.553Z,81.50
2023-02-13T00:05:20.851Z,81.40
2023-02-13T00:07:49.741Z,81.30
2023-02-13T00:10:19.545Z,81.30
2023-02-13T00:12:47.592Z,81.30
2023-02-13T00:15:15.852Z,81.30
2023-02-13T00:17:47.118Z,81.20
2023-02-13T00:20:15.358Z,81.20
2023-02-13T00:22:49.206Z,81.30
2023-02-13T00:25:22.207Z,81.40
2023-02-13T00:27:55.726Z,81.40
2023-02-13T00:30:24.374Z,81.30
2023-02-13T00:32:53.076Z,81.30
2023-02-13T00:35:21.506Z,81.30
2023-02-13T00:37:49.754Z,81.30
2023-02-13T00:40:19.685Z,81.30
2023-02-13T00:42:50.740Z,81.30
2023-02-13T00:45:19.724Z,81.30
2023-02-13T00:47:48.665Z,81.00
2023-02-13T00:50:17.157Z,81.00
2023-02-13T00:52:45.623Z,80.90
2023-02-13T00:55:14.212Z,80.90
2023-02-13T00:57:49.444Z,80.90
2023-02-13T01:00:19.035Z,80.70
2023-02-13T01:02:47.928Z,80.70
2023-02-13T01:05:16.309Z,80.60
2023-02-13T01:07:44.482Z,80.60
2023-02-13T01:10:14.361Z,80.70
2023-02-13T01:12:43.546Z,80.60
2023-02-13T01:15:14.086Z,80.40
2023-02-13T01:17:42.290Z,80.40
2023-02-13T01:20:13.336Z,80.40
2023-02-13T01:22:44.400Z,80.30
2023-02-13T01:25:12.689Z,80.30
2023-02-13T01:27:43.170Z,80.20
2023-02-13T01:30:17.538Z,80.20
2023-02-13T01:32:47.911Z,80.10
2023-02-13T01:35:17.228Z,80.10
2023-02-13T01:37:45.504Z,80.10
2023-02-13T01:40:17.314Z,80.00
2023-02-13T01:42:45.909Z,79.90
2023-02-13T01:45:28.940Z,79.70
2023-02-13T01:48:00.817Z,79.50
2023-02-13T01:50:35.318Z,79.50
2023-02-13T01:53:09.869Z,79.40
2023-02-13T01:55:47.312Z,79.40
2023-02-13T01:58:19.568Z,79.40
2023-02-13T02:00:50.172Z,79.40
2023-02-13T02:03:25.194Z,79.30
2023-02-13T02:05:56.594Z,79.30
2023-02-13T02:08:26.150Z,79.30
2023-02-13T02:11:02.584Z,79.30
2023-02-13T02:13:35.811Z,79.30
2023-02-13T02:16:12.258Z,79.40
2023-02-13T02:18:42.478Z,79.50
2023-02-13T02:21:41.001Z,79.60
2023-02-13T02:24:43.653Z,79.80
2023-02-13T02:27:30.357Z,80.00
2023-02-13T02:30:28.545Z,80.10
2023-02-13T02:33:08.870Z,80.20
2023-02-13T02:35:45.739Z,80.30
2023-02-13T02:38:41.668Z,80.30
2023-02-13T02:41:36.346Z,80.60
2023-02-13T02:44:15.706Z,80.60
2023-02-13T02:47:18.181Z,80.80
2023-02-13T02:50:02.092Z,80.70
2023-02-13T02:52:45.939Z,80.70
2023-02-13T02:55:29.199Z,80.90
2023-02-13T02:58:22.665Z,81.00
2023-02-13T03:01:10.579Z,81.00
2023-02-13T03:03:57.250Z,81.00
2023-02-13T03:06:33.681Z,81.10
2023-02-13T03:09:25.640Z,81.20
2023-02-13T03:12:14.624Z,81.10
2023-02-13T03:14:44.398Z,81.10
2023-02-13T03:17:35.817Z,81.10
2023-02-13T03:20:41.445Z,81.10
2023-02-13T03:23:16.491Z,81.00
2023-02-13T03:26:10.699Z,81.00
2023-02-13T03:29:04.173Z,81.10
2023-02-13T03:31:37.933Z,81.10
2023-02-13T03:34:09.840Z,81.20
2023-02-13T03:37:06.323Z,81.40
2023-02-13T03:39:47.126Z,81.60
2023-02-13T03:42:22.982Z,81.60
2023-02-13T03:45:10.621Z,81.60
2023-02-13T03:47:40.011Z,81.70
2023-02-13T03:50:09.758Z,81.80
2023-02-13T03:52:43.265Z,81.90
2023-02-13T03:55:36.064Z,81.90
2023-02-13T03:58:28.444Z,81.90
2023-02-13T04:01:05.244Z,81.80
2023-02-13T04:03:44.396Z,82.00
2023-02-13T04:06:17.196Z,82.20
2023-02-13T04:08:45.577Z,82.30
2023-02-13T04:11:19.723Z,82.30
2023-02-13T04:13:51.422Z,82.30
2023-02-13T04:16:23.926Z,82.30
2023-02-13T04:18:54.255Z,82.30
2023-02-13T04:21:22.576Z,82.30
2023-02-13T04:23:51.752Z,82.30
2023-02-13T04:26:24.990Z,82.30
2023-02-13T04:28:55.541Z,82.40
2023-02-13T04:31:23.832Z,82.30
2023-02-13T04:33:51.953Z,82.30
2023-02-13T04:36:20.562Z,82.30
2023-02-13T04:38:51.006Z,82.30
2023-02-13T04:41:25.006Z,82.40
2023-02-13T04:43:53.378Z,82.50
2023-02-13T04:46:21.648Z,82.50
2023-02-13T04:48:49.856Z,82.50
2023-02-13T04:51:21.087Z,82.50
2023-02-13T04:53:49.297Z,82.60
2023-02-13T04:56:22.228Z,82.50
2023-02-13T04:58:50.410Z,82.60
2023-02-13T05:01:20.461Z,82.50
2023-02-13T05:03:48.716Z,82.50
2023-02-13T05:06:17.098Z,82.40
2023-02-13T05:08:45.349Z,82.40
2023-02-13T05:11:14.142Z,82.40
2023-02-13T05:13:44.332Z,82.40
2023-02-13T05:16:12.615Z,82.40
2023-02-13T05:18:42.145Z,82.40
2023-02-13T05:21:29.953Z,82.50
2023-02-13T05:24:01.429Z,82.50
2023-02-13T05:26:29.560Z,82.30
2023-02-13T05:29:23.744Z,82.20
2023-02-13T05:31:54.928Z,82.30
2023-02-13T05:34:25.595Z,82.40
2023-02-13T05:36:53.762Z,82.40
2023-02-13T05:39:22.000Z,82.40
2023-02-13T05:41:50.906Z,82.40
2023-02-13T05:44:20.620Z,82.30
2023-02-13T05:46:51.855Z,82.30
2023-02-13T05:49:21.119Z,82.20
2023-02-13T05:51:49.505Z,82.20
2023-02-13T05:54:19.021Z,82.20
2023-02-13T05:56:47.419Z,82.20
2023-02-13T05:59:16.028Z,82.30
2023-02-13T06:01:48.761Z,82.30
2023-02-13T06:04:16.917Z,82.20
2023-02-13T06:06:46.350Z,82.10
2023-02-13T06:09:14.696Z,82.00
2023-02-13T06:11:42.883Z,82.10
2023-02-13T06:14:12.228Z,82.10
2023-02-13T06:16:43.400Z,82.00
2023-02-13T06:19:12.912Z,82.10
2023-02-13T06:21:41.649Z,82.00
2023-02-13T06:24:10.455Z,82.10
2023-02-13T06:26:40.845Z,82.00
2023-02-13T06:29:09.401Z,82.00
2023-02-13T06:31:38.110Z,82.00
2023-02-13T06:34:06.536Z,82.00
2023-02-13T06:36:41.846Z,82.00
2023-02-13T06:39:11.033Z,81.90
2023-02-13T06:41:39.189Z,82.00
2023-02-13T06:44:08.042Z,82.20
2023-02-13T06:46:46.257Z,82.20
2023-02-13T06:49:14.449Z,82.10
2023-02-13T06:51:44.218Z,82.10
2023-02-13T06:54:12.345Z,82.10
2023-02-13T06:56:46.102Z,82.20
2023-02-13T06:59:22.348Z,82.20
2023-02-13T07:01:50.552Z,82.20
2023-02-13T07:04:18.754Z,82.10
2023-02-13T07:06:48.333Z,82.30
2023-02-13T07:09:16.854Z,82.30
2023-02-13T07:11:47.228Z,82.20
2023-02-13T07:14:16.232Z,82.30
2023-02-13T07:16:47.523Z,82.10
2023-02-13T07:19:15.905Z,82.20
2023-02-13T07:21:44.012Z,82.00
2023-02-13T07:24:13.840Z,82.10
2023-02-13T07:26:41.983Z,82.20
2023-02-13T07:29:15.627Z,82.10
2023-02-13T07:31:52.021Z,82.20
2023-02-13T07:34:25.116Z,82.30
2023-02-13T07:37:25.562Z,82.50
2023-02-13T07:40:18.537Z,82.50
2023-02-13T07:42:53.943Z,82.30
2023-02-13T07:45:39.059Z,82.30
2023-02-13T07:48:38.359Z,82.40
2023-02-13T07:51:12.144Z,82.60
2023-02-13T07:53:49.671Z,82.70
2023-02-13T07:56:57.552Z,82.80
2023-02-13T07:59:31.800Z,82.90
2023-02-13T08:02:06.032Z,82.90
2023-02-13T08:04:41.812Z,82.90
2023-02-13T08:07:39.808Z,83.00
2023-02-13T08:10:32.899Z,82.90
2023-02-13T08:13:23.130Z,83.30
2023-02-13T08:19:10.790Z,83.10
2023-02-13T08:21:42.331Z,83.10
2023-02-13T08:24:24.789Z,83.20
2023-02-13T08:26:57.329Z,83.30
2023-02-13T08:32:53.943Z,83.60
2023-02-13T08:35:52.149Z,83.60
2023-02-13T08:38:32.244Z,83.50
2023-02-13T08:41:29.522Z,83.50
2023-02-13T08:44:16.811Z,83.70
2023-02-13T08:46:52.665Z,83.60
2023-02-13T08:50:27.190Z,83.70
2023-02-13T08:53:21.710Z,83.80
2023-02-13T08:56:16.316Z,83.70
2023-02-13T08:59:19.695Z,83.60
2023-02-13T09:05:04.239Z,83.80
2023-02-13T09:07:41.452Z,83.80
2023-02-13T09:10:26.742Z,83.70
2023-02-13T09:13:37.667Z,83.80
2023-02-13T09:16:13.347Z,83.90
2023-02-13T09:18:47.074Z,83.90
2023-02-13T09:21:24.529Z,83.90
2023-02-13T09:27:52.305Z,83.80
2023-02-13T09:31:05.813Z,83.90
2023-02-13T09:33:43.373Z,84.00
2023-02-13T09:37:02.643Z,84.00
2023-02-13T09:39:38.528Z,84.10
2023-02-13T09:42:41.082Z,84.10
2023-02-13T09:45:16.677Z,84.30
2023-02-13T09:47:59.161Z,84.40
2023-02-13T09:56:55.094Z,84.20
2023-02-13T09:59:38.910Z,84.10
2023-02-13T10:02:30.962Z,84.10
2023-02-13T10:05:10.201Z,84.10
2023-02-13T10:07:46.077Z,84.10
2023-02-13T10:10:28.532Z,84.10
2023-02-13T10:13:24.201Z,84.10
2023-02-13T10:16:01.070Z,84.30
2023-02-13T10:18:42.621Z,84.40
2023-02-13T10:21:13.664Z,84.30
2023-02-13T10:23:46.456Z,84.20
2023-02-13T10:26:21.368Z,84.40
2023-02-13T10:29:09.837Z,84.50
2023-02-13T10:31:48.978Z,84.50
2023-02-13T10:34:25.301Z,84.50
2023-02-13T10:36:54.177Z,84.40
2023-02-13T10:39:27.418Z,84.40
2023-02-13T10:41:59.892Z,84.40
2023-02-13T10:44:40.062Z,84.60
2023-02-13T10:47:25.217Z,84.60
2023-02-13T10:50:06.579Z,84.70
2023-02-13T10:52:46.776Z,84.70
2023-02-13T10:55:48.866Z,84.60
2023-02-13T10:58:52.908Z,84.60
2023-02-13T11:01:51.334Z,84.40
2023-02-13T11:04:26.745Z,84.50
2023-02-13T11:07:03.641Z,84.60
2023-02-13T11:09:38.598Z,84.70
2023-02-13T11:12:26.138Z,84.70
2023-02-13T11:15:00.189Z,84.70
2023-02-13T11:17:37.467Z,84.70
2023-02-13T11:20:33.360Z,84.70
2023-02-13T11:23:40.644Z,84.70
2023-02-13T11:30:10.114Z,84.70
2023-02-13T11:32:51.397Z,84.70
2023-02-13T11:35:45.190Z,84.70
2023-02-13T11:38:38.419Z,84.80
2023-02-13T11:42:02.265Z,84.80
2023-02-13T11:45:11.194Z,84.80
2023-02-13T11:47:51.226Z,84.90
2023-02-13T11:50:56.581Z,84.70
2023-02-13T12:09:48.677Z,84.80
2023-02-13T12:12:38.419Z,85.00
2023-02-13T12:15:30.742Z,85.00
2023-02-13T12:18:19.692Z,85.20
2023-02-13T12:21:05.199Z,85.30
2023-02-13T12:24:03.853Z,85.20
2023-02-13T12:26:47.442Z,85.30
2023-02-13T12:29:53.849Z,85.40
2023-02-13T12:32:37.026Z,85.40
2023-02-13T12:35:36.429Z,85.50
2023-02-13T12:38:19.321Z,85.60
2023-02-13T12:45:26.346Z,85.60
2023-02-13T12:48:36.626Z,85.50
2023-02-13T12:51:59.954Z,85.40
2023-02-13T12:55:05.349Z,85.40
2023-02-13T12:58:30.955Z,85.30
2023-02-13T13:01:39.655Z,85.40
2023-02-13T13:14:54.044Z,85.50
2023-02-13T13:17:59.043Z,85.30
2023-02-13T13:21:09.451Z,85.20
2023-02-13T13:27:03.023Z,85.10
2023-02-13T13:30:07.277Z,85.10
2023-02-13T13:33:32.397Z,85.10
2023-02-13T13:39:40.229Z,85.10
2023-02-13T13:46:13.232Z,84.80
2023-02-13T13:52:59.778Z,84.80
2023-02-13T14:15:05.025Z,84.20
2023-02-13T14:18:11.918Z,84.10
2023-02-13T14:37:22.923Z,83.40
2023-02-13T14:40:25.297Z,83.30
2023-02-13T14:43:01.938Z,83.20
2023-02-13T14:45:51.056Z,83.10
2023-02-13T15:38:41.316Z,80.80
2023-02-13T15:41:27.634Z,80.60
2023-02-13T15:44:07.988Z,80.60
2023-02-13T15:47:11.697Z,80.50
2023-02-13T15:49:53.275Z,80.40
2023-02-13T15:55:38.722Z,80.20
2023-02-13T15:58:38.300Z,80.00
2023-02-13T16:04:45.376Z,80.00
2023-02-13T16:07:16.416Z,79.90
2023-02-13T16:09:52.732Z,79.80
2023-02-13T16:12:28.758Z,79.70
2023-02-13T16:15:06.079Z,79.70
2023-02-13T16:17:38.839Z,79.70
2023-02-13T16:23:16.970Z,79.60
2023-02-13T16:25:47.454Z,79.60
2023-02-13T16:28:23.756Z,79.60
2023-02-13T16:30:59.993Z,79.60
2023-02-13T16:33:35.563Z,79.60
2023-02-13T16:36:20.444Z,79.60
2023-02-13T16:38:52.006Z,79.50
2023-02-13T16:41:44.620Z,79.40
2023-02-13T16:44:29.105Z,79.30
2023-02-13T16:47:03.098Z,79.20
2023-02-13T16:49:35.075Z,79.10
2023-02-13T16:52:12.664Z,79.10
2023-02-13T16:54:55.102Z,79.00
2023-02-13T16:57:27.651Z,79.00
2023-02-13T17:00:04.436Z,79.00
2023-02-13T17:02:34.750Z,78.90
2023-02-13T17:05:23.238Z,78.70
2023-02-13T17:07:59.728Z,78.60
2023-02-13T17:10:36.739Z,78.70
2023-02-13T17:13:17.700Z,78.70
2023-02-13T17:15:53.131Z,78.70
2023-02-13T17:18:24.463Z,78.60
2023-02-13T17:20:58.731Z,78.50
2023-02-13T17:23:31.200Z,78.40
2023-02-13T17:26:00.189Z,78.40
2023-02-13T17:28:30.375Z,78.50
2023-02-13T17:34:01.402Z,78.10
2023-02-13T17:36:38.809Z,78.10
2023-02-13T18:25:19.939Z,78.80
2023-02-13T18:27:55.587Z,78.80
2023-02-13T18:30:28.564Z,78.80
2023-02-13T18:33:00.280Z,78.80
2023-02-13T18:35:28.645Z,78.80
2023-02-13T18:45:50.368Z,78.60
2023-02-13T18:48:20.538Z,78.90
2023-02-13T19:12:06.791Z,78.90
2023-02-13T19:14:34.859Z,78.70
